createdAt,value
2018-08-06T00:00:11.677Z,96.20
2018-08-06T00:02:40.375Z,96.20
2018-08-06T00:05:10.115Z,95.30
2018-08-06T00:07:38.687Z,95.30
2018-08-06T00:10:10.860Z,95.40
2018-08-06T00:12:39.694Z,94.70
2018-08-06T00:15:09.713Z,95.50
2018-08-06T00:17:38.605Z,95.40
2018-08-06T00:20:08.248Z,93.90
2018-08-06T00:22:36.907Z,94.80
2018-08-06T00:25:05.948Z,94.40
2018-08-06T00:27:34.552Z,93.70
2018-08-06T00:30:03.285Z,92.60
2018-08-06T00:32:31.842Z,90.40
2018-08-06T00:35:01.375Z,93.50
2018-08-06T00:37:30.225Z,93.00
2018-08-06T00:39:58.832Z,94.60
2018-08-06T00:42:27.437Z,95.00
2018-08-06T00:44:56.038Z,95.30
2018-08-06T00:47:24.643Z,95.60
2018-08-06T00:49:53.386Z,95.70
2018-08-06T00:52:23.021Z,94.20
2018-08-06T00:54:52.212Z,94.70
2018-08-06T00:57:20.829Z,95.50
2018-08-06T00:59:49.542Z,92.50
2018-08-06T01:02:18.254Z,94.20
2018-08-06T01:04:46.929Z,94.30
2018-08-06T01:07:15.666Z,92.50
2018-08-06T01:09:44.529Z,92.50
2018-08-06T01:12:13.381Z,96.60
2018-08-06T01:14:42.528Z,93.50
2018-08-06T01:17:11.789Z,93.40
2018-08-06T01:19:41.556Z,85.20
2018-08-06T01:22:10.164Z,84.40
2018-08-06T01:24:38.782Z,82.20
2018-08-06T01:27:07.693Z,83.30
2018-08-06T01:29:36.280Z,90.00
2018-08-06T01:32:04.997Z,93.70
2018-08-06T01:34:33.576Z,93.50
2018-08-06T01:37:02.369Z,84.90
2018-08-06T01:39:31.611Z,86.60
2018-08-06T01:42:00.243Z,91.60
2018-08-06T01:46:57.119Z,90.50
2018-08-06T01:49:25.692Z,82.50
2018-08-06T01:51:54.359Z,82.50
2018-08-06T01:54:22.907Z,90.90
2018-08-06T01:56:51.550Z,90.40
2018-08-06T01:59:20.214Z,86.10
2018-08-06T02:01:48.920Z,89.30
2018-08-06T02:04:17.646Z,90.30
2018-08-06T02:06:46.273Z,89.90
2018-08-06T02:09:14.916Z,88.40
2018-08-06T02:11:43.571Z,88.30
2018-08-06T02:14:12.196Z,83.90
2018-08-06T02:16:40.860Z,92.00
2018-08-06T02:19:09.903Z,93.20
2018-08-06T02:21:38.770Z,92.30
2018-08-06T02:24:07.513Z,82.80
2018-08-06T02:26:36.153Z,85.40
2018-08-06T02:29:04.888Z,88.30
2018-08-06T02:31:33.506Z,89.10
2018-08-06T02:34:02.158Z,91.50
2018-08-06T02:36:30.753Z,91.70
2018-08-06T02:38:59.501Z,93.80
2018-08-06T02:43:56.561Z,91.30
2018-08-06T02:46:25.200Z,88.30
2018-08-06T02:48:54.190Z,93.50
2018-08-06T02:51:22.829Z,90.30
2018-08-06T02:53:51.526Z,87.20
2018-08-06T02:56:20.137Z,89.60
2018-08-06T02:58:48.781Z,90.50
2018-08-06T03:01:17.440Z,93.10
2018-08-06T03:03:46.072Z,84.30
2018-08-06T03:06:14.792Z,93.50
2018-08-06T03:08:43.412Z,92.10
2018-08-06T03:11:12.056Z,86.50
2018-08-06T03:13:41.262Z,83.60
2018-08-06T03:18:38.326Z,86.10
2018-08-06T03:21:06.951Z,89.90
2018-08-06T03:23:35.533Z,82.80
2018-08-06T03:26:04.164Z,89.70
2018-08-06T03:28:32.897Z,89.70
2018-08-06T03:31:01.452Z,91.90
2018-08-06T03:33:30.121Z,89.30
2018-08-06T03:35:58.819Z,91.30
2018-08-06T03:38:27.507Z,93.40
2018-08-06T03:40:56.178Z,93.40
2018-08-06T03:43:24.847Z,92.60
2018-08-06T03:45:53.459Z,93.60
2018-08-06T03:48:22.095Z,93.20
2018-08-06T03:50:50.725Z,92.60
2018-08-06T03:53:19.401Z,92.50
2018-08-06T03:55:48.084Z,90.20
2018-08-06T03:58:16.729Z,93.50
2018-08-06T04:00:45.374Z,85.60
2018-08-06T04:03:14.040Z,89.70
2018-08-06T04:05:42.723Z,92.40
2018-08-06T04:08:11.332Z,92.60
2018-08-06T04:10:40.124Z,88.90
2018-08-06T04:13:08.794Z,92.80
2018-08-06T04:15:37.381Z,94.60
2018-08-06T04:18:06.556Z,93.10
2018-08-06T04:20:35.285Z,93.60
2018-08-06T04:23:04.306Z,88.20
2018-08-06T04:25:32.924Z,92.20
2018-08-06T04:28:01.597Z,94.00
2018-08-06T04:30:30.201Z,94.10
2018-08-06T04:32:58.833Z,93.20
2018-08-06T04:35:27.560Z,93.50
2018-08-06T04:37:56.203Z,93.60
2018-08-06T04:40:24.822Z,93.80
2018-08-06T04:42:53.469Z,93.80
2018-08-06T04:45:22.163Z,92.00
2018-08-06T04:47:50.799Z,93.90
2018-08-06T04:50:19.394Z,90.20
2018-08-06T04:52:48.073Z,91.90
2018-08-06T04:55:16.765Z,92.90
2018-08-06T04:57:45.485Z,93.10
2018-08-06T05:00:15.230Z,92.00
2018-08-06T05:02:44.590Z,91.60
2018-08-06T05:05:13.321Z,91.20
2018-08-06T05:07:41.969Z,80.90
2018-08-06T05:10:10.695Z,91.10
2018-08-06T05:12:39.398Z,91.00
2018-08-06T05:15:07.954Z,91.20
2018-08-06T05:17:36.552Z,86.60
2018-08-06T05:20:05.596Z,91.40
2018-08-06T05:22:34.306Z,91.40
2018-08-06T05:25:03.080Z,91.00
2018-08-06T05:27:31.752Z,92.00
2018-08-06T05:30:00.347Z,91.10
2018-08-06T05:32:28.889Z,92.40
2018-08-06T05:34:57.439Z,88.50
2018-08-06T05:37:26.026Z,84.80
2018-08-06T05:39:54.684Z,80.30
2018-08-06T05:42:23.450Z,86.30
2018-08-06T05:44:52.321Z,96.30
2018-08-06T05:47:21.095Z,92.80
2018-08-06T05:49:49.866Z,95.90
2018-08-06T05:52:18.528Z,93.40
2018-08-06T05:54:47.192Z,94.00
2018-08-06T05:57:15.944Z,92.50
2018-08-06T05:59:44.555Z,93.50
2018-08-06T06:02:13.194Z,96.10
2018-08-06T06:04:41.905Z,97.40
2018-08-06T06:07:10.625Z,97.60
2018-08-06T06:12:07.583Z,82.60
2018-08-06T06:14:36.471Z,93.30
2018-08-06T06:17:05.013Z,93.50
2018-08-06T06:19:33.869Z,96.50
2018-08-06T06:22:02.699Z,89.60
2018-08-06T06:24:31.312Z,94.70
2018-08-06T06:26:59.932Z,80.60
2018-08-06T06:29:29.709Z,78.60
2018-08-06T06:31:58.410Z,90.40
2018-08-06T06:34:27.378Z,91.40
2018-08-06T06:36:56.000Z,84.70
2018-08-06T06:39:24.621Z,73.10
2018-08-06T06:41:53.319Z,71.20
2018-08-06T06:46:50.194Z,77.40
2018-08-06T06:49:18.942Z,89.20
2018-08-06T06:51:47.449Z,94.10
2018-08-06T06:54:16.235Z,90.90
2018-08-06T06:56:44.819Z,76.80
2018-08-06T06:59:13.463Z,93.60
2018-08-06T07:01:42.031Z,78.20
2018-08-06T07:04:11.837Z,90.50
2018-08-06T07:06:40.733Z,87.40
2018-08-06T07:09:11.471Z,89.70
2018-08-06T07:11:40.253Z,91.90
2018-08-06T07:14:08.926Z,85.60
2018-08-06T07:16:37.520Z,81.50
2018-08-06T07:19:06.572Z,76.20
2018-08-06T07:21:35.503Z,68.50
2018-08-06T07:24:04.601Z,89.20
2018-08-06T07:26:33.249Z,65.80
2018-08-06T07:29:01.884Z,72.80
2018-08-06T07:31:30.889Z,73.10
2018-08-06T07:34:01.489Z,65.80
2018-08-06T07:36:30.900Z,64.10
2018-08-06T07:38:59.590Z,79.40
2018-08-06T07:41:28.252Z,70.10
2018-08-06T07:43:56.901Z,69.40
2018-08-06T07:46:25.656Z,63.70
2018-08-06T07:48:54.398Z,76.70
2018-08-06T07:51:22.962Z,79.20
2018-08-06T07:53:51.553Z,75.40
2018-08-06T07:56:20.138Z,85.60
2018-08-06T07:58:48.797Z,91.80
2018-08-06T08:01:17.382Z,91.30
2018-08-06T08:03:46.031Z,96.10
2018-08-06T08:06:14.705Z,96.30
2018-08-06T08:08:43.213Z,86.50
2018-08-06T08:11:11.926Z,94.20
2018-08-06T08:13:40.587Z,93.40
2018-08-06T08:16:09.293Z,92.50
2018-08-06T08:18:38.128Z,89.80
2018-08-06T08:21:06.769Z,89.70
2018-08-06T08:23:35.383Z,93.30
2018-08-06T08:26:04.064Z,92.00
2018-08-06T08:28:32.722Z,92.50
2018-08-06T08:31:01.665Z,84.40
2018-08-06T08:33:32.945Z,87.40
2018-08-06T08:36:01.598Z,91.00
2018-08-06T08:38:30.456Z,80.80
2018-08-06T08:40:59.758Z,92.40
2018-08-06T08:43:28.432Z,92.60
2018-08-06T08:45:57.108Z,92.30
2018-08-06T08:48:25.704Z,93.00
2018-08-06T08:50:54.373Z,95.40
2018-08-06T08:53:23.029Z,91.60
2018-08-06T08:55:51.663Z,91.70
2018-08-06T08:58:20.344Z,94.80
2018-08-06T09:00:49.024Z,92.90
2018-08-06T09:03:17.695Z,94.90
2018-08-06T09:05:46.418Z,96.00
2018-08-06T09:08:15.038Z,95.20
2018-08-06T09:10:43.696Z,96.30
2018-08-06T09:13:12.324Z,77.80
2018-08-06T09:15:41.011Z,90.80
2018-08-06T09:18:09.712Z,88.70
2018-08-06T09:20:38.410Z,90.50
2018-08-06T09:23:07.264Z,77.30
2018-08-06T09:25:35.894Z,87.90
2018-08-06T09:28:04.558Z,94.40
2018-08-06T09:30:33.271Z,95.00
2018-08-06T09:33:01.875Z,94.70
2018-08-06T09:35:31.398Z,97.70
2018-08-06T09:38:00.984Z,95.40
2018-08-06T09:40:29.828Z,96.90
2018-08-06T09:42:58.501Z,97.60
2018-08-06T09:45:27.047Z,96.90
2018-08-06T09:47:55.671Z,94.30
2018-08-06T09:50:24.270Z,96.20
2018-08-06T09:52:53.924Z,98.20
2018-08-06T09:55:24.760Z,99.10
2018-08-06T09:57:53.612Z,91.50
2018-08-06T10:00:28.568Z,93.40
2018-08-06T10:02:58.410Z,93.60
2018-08-06T10:05:27.647Z,95.40
2018-08-06T10:07:56.222Z,94.30
2018-08-06T10:10:24.966Z,91.90
2018-08-06T10:12:53.650Z,91.80
2018-08-06T10:15:22.651Z,94.20
2018-08-06T10:17:52.672Z,95.80
2018-08-06T10:20:24.266Z,77.30
2018-08-06T10:22:52.912Z,88.40
2018-08-06T10:25:21.601Z,95.60
2018-08-06T10:27:50.178Z,95.90
2018-08-06T10:30:20.911Z,97.20
2018-08-06T10:35:18.753Z,98.00
2018-08-06T10:37:47.496Z,98.30
2018-08-06T10:40:18.443Z,99.50
2018-08-06T10:42:47.348Z,92.00
2018-08-06T10:45:17.326Z,94.10
2018-08-06T10:47:46.173Z,96.60
2018-08-06T10:50:15.064Z,96.40
2018-08-06T10:52:43.660Z,93.80
2018-08-06T10:55:12.751Z,95.10
2018-08-06T10:57:42.655Z,98.70
2018-08-06T11:00:14.484Z,98.10
2018-08-06T11:02:43.613Z,97.50
2018-08-06T11:05:14.366Z,98.50
2018-08-06T11:07:43.033Z,96.10
2018-08-06T11:10:16.305Z,95.00
2018-08-06T11:12:44.990Z,96.30
2018-08-06T11:15:16.424Z,97.20
2018-08-06T11:17:45.515Z,97.60
2018-08-06T11:20:15.175Z,97.50
2018-08-06T11:22:44.730Z,98.10
2018-08-06T11:25:15.620Z,97.60
2018-08-06T11:27:44.667Z,99.30
2018-08-06T11:30:15.256Z,99.90
2018-08-06T11:32:46.143Z,99.90
2018-08-06T11:35:15.800Z,99.90
2018-08-06T11:37:45.802Z,98.50
2018-08-06T11:40:15.544Z,88.40
2018-08-06T11:42:44.800Z,94.10
2018-08-06T11:45:16.133Z,96.30
2018-08-06T11:47:44.909Z,91.40
2018-08-06T11:50:13.560Z,94.90
2018-08-06T11:52:42.341Z,95.50
2018-08-06T11:55:11.084Z,94.10
2018-08-06T11:57:39.756Z,65.10
2018-08-06T12:00:11.184Z,81.10
2018-08-06T12:02:39.850Z,73.10
2018-08-06T12:05:08.508Z,57.30
2018-08-06T12:07:37.559Z,82.00
2018-08-06T12:10:08.463Z,90.90
2018-08-06T12:12:37.102Z,93.20
2018-08-06T12:15:06.294Z,95.50
2018-08-06T12:17:34.897Z,96.60
2018-08-06T12:20:04.854Z,97.50
2018-08-06T12:22:33.484Z,98.10
2018-08-06T12:25:02.081Z,98.30
2018-08-06T12:27:30.693Z,97.70
2018-08-06T12:29:59.220Z,98.00
2018-08-06T12:32:28.271Z,97.60
2018-08-06T12:34:56.872Z,97.60
2018-08-06T12:37:25.790Z,97.20
2018-08-06T12:39:54.385Z,99.30
2018-08-06T12:42:23.228Z,98.40
2018-08-06T12:44:51.857Z,99.30
2018-08-06T12:47:20.514Z,89.80
2018-08-06T12:49:49.105Z,97.00
2018-08-06T12:52:18.347Z,97.80
2018-08-06T12:54:46.968Z,98.10
2018-08-06T12:57:15.897Z,98.20
2018-08-06T12:59:44.542Z,98.50
2018-08-06T13:02:13.167Z,99.20
2018-08-06T13:04:42.181Z,94.70
2018-08-06T13:07:10.798Z,97.00
2018-08-06T13:09:39.335Z,98.10
2018-08-06T13:12:08.017Z,97.70
2018-08-06T13:14:36.530Z,98.50
2018-08-06T13:17:05.217Z,99.90
2018-08-06T13:22:02.263Z,98.10
2018-08-06T13:24:30.756Z,99.10
2018-08-06T13:26:59.404Z,99.40
2018-08-06T13:29:27.936Z,97.60
2018-08-06T13:31:56.551Z,99.00
2018-08-06T13:34:25.113Z,98.90
2018-08-06T13:36:53.869Z,99.30
2018-08-06T13:41:52.916Z,99.70
2018-08-06T13:44:21.579Z,99.40
2018-08-06T13:46:50.281Z,99.70
2018-08-06T13:49:18.805Z,99.90
2018-08-06T13:51:47.375Z,99.60
2018-08-06T13:54:15.972Z,99.80
2018-08-06T13:56:44.580Z,98.10
2018-08-06T13:59:13.236Z,98.90
2018-08-06T14:01:41.846Z,97.80
2018-08-06T14:04:10.513Z,96.90
2018-08-06T14:06:39.082Z,99.40
2018-08-06T14:09:09.766Z,99.90
2018-08-06T14:11:38.389Z,99.30
2018-08-06T14:14:07.277Z,99.90
2018-08-06T14:16:35.907Z,99.90
2018-08-06T14:19:05.071Z,99.90
2018-08-06T14:21:33.648Z,99.90
2018-08-06T14:24:02.261Z,99.90
2018-08-06T14:26:30.912Z,99.90
2018-08-06T14:28:59.689Z,99.90
2018-08-06T14:31:28.301Z,99.80
2018-08-06T14:33:56.865Z,97.10
2018-08-06T14:36:25.510Z,99.90
2018-08-06T14:38:54.140Z,98.60
2018-08-06T14:41:22.893Z,99.10
2018-08-06T14:43:51.696Z,98.90
2018-08-06T14:46:20.617Z,99.40
2018-08-06T14:48:49.171Z,99.90
2018-08-06T14:51:17.753Z,99.20
2018-08-06T14:53:46.318Z,99.90
2018-08-06T14:56:14.842Z,99.90
2018-08-06T14:58:43.520Z,99.90
2018-08-06T15:01:12.060Z,99.90
2018-08-06T15:03:40.638Z,99.70
2018-08-06T15:11:05.703Z,72.10
2018-08-06T15:13:34.203Z,93.60
2018-08-06T15:16:02.749Z,95.80
2018-08-06T15:18:31.363Z,96.70
2018-08-06T15:20:59.886Z,97.60
2018-08-06T15:25:56.664Z,98.50
2018-08-06T15:28:25.220Z,99.20
2018-08-06T15:30:53.897Z,99.10
2018-08-06T15:33:22.679Z,99.90
2018-08-06T15:35:51.292Z,99.90
2018-08-06T15:40:59.376Z,99.40
2018-08-06T15:43:28.144Z,99.20
2018-08-06T15:45:56.683Z,99.00
2018-08-06T15:48:25.284Z,99.20
2018-08-06T15:50:54.277Z,99.90
2018-08-06T15:53:22.856Z,99.70
2018-08-06T15:55:51.408Z,99.40
2018-08-06T15:58:19.956Z,99.90
2018-08-06T16:00:48.613Z,99.90
2018-08-06T16:03:17.197Z,99.90
2018-08-06T16:05:45.826Z,99.90
2018-08-06T16:08:14.352Z,99.30
2018-08-06T16:10:42.924Z,99.90
2018-08-06T16:13:11.500Z,99.90
2018-08-06T16:15:40.185Z,99.90
2018-08-06T16:18:08.898Z,99.90
2018-08-06T16:20:37.553Z,99.90
2018-08-06T16:23:06.436Z,99.50
2018-08-06T16:25:35.062Z,97.40
2018-08-06T16:28:03.692Z,98.20
2018-08-06T16:30:32.294Z,99.70
2018-08-06T16:33:00.839Z,99.50
2018-08-06T16:35:29.405Z,99.90
2018-08-06T16:37:58.332Z,99.80
2018-08-06T16:40:27.004Z,99.60
2018-08-06T16:42:55.735Z,99.90
2018-08-06T16:45:24.465Z,99.90
2018-08-06T16:47:53.173Z,99.70
2018-08-06T16:50:21.855Z,99.70
2018-08-06T16:52:50.601Z,99.90
2018-08-06T16:55:19.204Z,99.90
2018-08-06T16:57:47.839Z,99.90
2018-08-06T17:00:18.188Z,99.90
2018-08-06T17:02:47.116Z,99.80
2018-08-06T17:05:15.774Z,99.70
2018-08-06T17:07:45.458Z,99.90
2018-08-06T17:10:16.638Z,99.90
2018-08-06T17:12:46.212Z,99.90
2018-08-06T17:15:16.041Z,99.90
2018-08-06T17:17:44.861Z,99.80
2018-08-06T17:20:15.700Z,99.90
2018-08-06T17:22:45.823Z,99.90
2018-08-06T17:25:14.680Z,99.90
2018-08-06T17:27:43.477Z,99.90
2018-08-06T17:30:13.026Z,99.90
2018-08-06T17:32:41.761Z,99.90
2018-08-06T17:35:11.686Z,99.90
2018-08-06T17:37:40.478Z,99.90
2018-08-06T17:40:12.477Z,99.90
2018-08-06T17:42:41.355Z,99.90
2018-08-06T17:45:13.732Z,99.90
2018-08-06T17:47:42.429Z,99.90
2018-08-06T17:50:13.219Z,99.90
2018-08-06T17:52:41.926Z,99.90
2018-08-06T17:55:10.560Z,99.90
2018-08-06T17:57:39.160Z,99.30
2018-08-06T18:00:08.864Z,99.90
2018-08-06T18:02:37.632Z,99.60
2018-08-06T18:05:07.701Z,99.80
2018-08-06T18:07:36.460Z,98.60
2018-08-06T18:10:08.072Z,99.70
2018-08-06T18:12:36.733Z,99.90
2018-08-06T18:15:05.729Z,99.90
2018-08-06T18:17:34.464Z,99.90
2018-08-06T18:20:03.239Z,99.90
2018-08-06T18:22:31.824Z,99.90
2018-08-06T18:25:00.397Z,99.90
2018-08-06T18:27:28.961Z,99.90
2018-08-06T18:29:57.516Z,99.90
2018-08-06T18:32:26.083Z,99.90
2018-08-06T18:34:54.650Z,99.90
2018-08-06T18:37:23.189Z,99.90
2018-08-06T18:39:51.753Z,99.90
2018-08-06T18:42:20.415Z,99.90
2018-08-06T18:44:49.000Z,99.90
2018-08-06T18:47:17.554Z,99.90
2018-08-06T18:49:46.093Z,99.90
2018-08-06T18:52:14.656Z,96.60
2018-08-06T18:54:51.623Z,97.20
2018-08-06T18:57:20.180Z,92.60
2018-08-06T18:59:48.739Z,94.40
2018-08-06T19:02:17.362Z,97.80
2018-08-06T19:04:45.944Z,98.00
2018-08-06T19:07:14.676Z,99.30
2018-08-06T20:22:58.127Z,94.10
2018-08-06T20:25:26.900Z,93.20
2018-08-06T20:27:55.500Z,93.80
2018-08-06T20:30:26.977Z,95.20
2018-08-06T20:32:56.728Z,94.00
2018-08-06T20:35:25.557Z,91.90
2018-08-06T20:37:54.100Z,93.60
2018-08-06T20:40:22.751Z,92.20
2018-08-06T20:45:20.677Z,95.50
2018-08-06T20:47:49.274Z,93.00
2018-08-06T20:50:20.532Z,94.60
2018-08-06T20:52:51.280Z,95.60
2018-08-06T20:55:19.918Z,94.70
2018-08-06T20:57:49.049Z,94.10
2018-08-06T21:00:19.724Z,95.50
2018-08-06T21:02:49.163Z,94.30
2018-08-06T21:05:18.675Z,94.00
2018-08-06T21:07:47.349Z,95.30
2018-08-06T21:10:16.681Z,96.40
2018-08-06T21:12:45.706Z,96.60
2018-08-06T21:15:15.180Z,97.50
2018-08-06T21:17:44.722Z,95.80
2018-08-06T21:20:16.740Z,97.50
2018-08-06T21:22:46.360Z,96.10
2018-08-06T21:25:15.125Z,95.80
2018-08-06T21:27:45.102Z,97.00
2018-08-06T21:30:16.139Z,95.70
2018-08-06T21:32:48.528Z,96.50
2018-08-06T21:35:18.164Z,94.40
2018-08-06T21:37:48.616Z,95.40
2018-08-06T21:40:17.666Z,95.80
2018-08-06T21:42:46.273Z,95.50
2018-08-06T21:45:14.805Z,97.00
2018-08-06T21:47:43.572Z,95.70
2018-08-06T21:50:12.775Z,92.60
2018-08-06T21:52:41.484Z,89.80
2018-08-06T21:55:10.653Z,90.60
2018-08-06T21:57:39.428Z,92.80
2018-08-06T22:00:19.739Z,93.10
2018-08-06T22:02:48.301Z,95.40
2018-08-06T22:05:16.846Z,96.00
2018-08-06T22:07:45.372Z,96.30
2018-08-06T22:10:14.031Z,96.00
2018-08-06T22:12:42.748Z,95.40
2018-08-06T22:15:11.353Z,94.20
2018-08-06T22:17:39.868Z,93.40
2018-08-06T22:20:08.444Z,95.10
2018-08-06T22:22:37.104Z,96.40
2018-08-06T22:25:05.707Z,96.20
2018-08-06T22:27:34.426Z,97.10
2018-08-06T22:30:03.074Z,97.50
2018-08-06T22:32:32.229Z,97.00
2018-08-06T22:35:01.030Z,95.80
2018-08-06T22:37:29.793Z,94.60
2018-08-06T22:39:58.420Z,96.10
2018-08-06T22:42:27.067Z,95.70
2018-08-06T22:44:55.762Z,96.20
2018-08-06T22:47:24.323Z,94.60
2018-08-06T22:49:52.851Z,96.00
2018-08-06T22:52:21.426Z,97.60
2018-08-06T22:54:50.230Z,97.20
2018-08-06T22:57:18.904Z,96.90
2018-08-06T22:59:47.526Z,96.80
2018-08-06T23:02:16.083Z,97.10
2018-08-06T23:04:44.757Z,96.50
2018-08-06T23:07:13.961Z,96.40
2018-08-06T23:09:42.658Z,95.90
2018-08-06T23:12:11.212Z,95.80
2018-08-06T23:17:08.041Z,95.30
2018-08-06T23:19:37.411Z,94.00
2018-08-06T23:22:06.130Z,94.40
2018-08-06T23:24:34.648Z,95.70
2018-08-06T23:27:03.454Z,95.50
2018-08-06T23:29:32.107Z,95.10
2018-08-06T23:32:00.744Z,94.80
2018-08-06T23:34:29.313Z,95.10
2018-08-06T23:36:57.909Z,93.40
2018-08-06T23:39:26.606Z,93.70
2018-08-06T23:41:55.274Z,95.40
2018-08-06T23:46:52.015Z,96.50
2018-08-06T23:49:21.130Z,97.20
2018-08-06T23:51:49.827Z,97.40
2018-08-06T23:54:18.372Z,96.40
2018-08-06T23:56:46.922Z,96.60
2018-08-06T23:59:15.525Z,96.40
